VIKA weather

Kanpur Civil Airport
Kanpur, Uttar Pradesh, India

Public forecast

Using degrees Celsius for public forecast. Weather courtesy of forecast.io.

Closest aviation weather report (METAR) to Kanpur Civil Airport

Closest report is Chaudhary Charan Singh International Airport, 34.1 nm (63.1 km) NE. Retrieved 2020/08/06 14:30 UTC (1 hour ago):

VILK 061430Z 11008KT 5000 HZ SCT020 BKN100 29/26 Q0999 NOSIG

Closest aviation forecast (TAF) to Kanpur Civil Airport

Forecast is more than 12 hours old.

Closest forecast is Kanpur Airport, 3.3 nm (6.1 km) SE. Retrieved 2020/02/24 06:30 UTC (5 months ago):

TAF VICX 240330Z 2406/2418 07005KT 5000 HZ SCT100 SCT250 BECMG 2409/2412 6000 SCT100 SCT250TAF VEKU 240330Z 2406/2418 10003KT 6000 FEW025 SCT100 BKN250